Time;durP1;ratioP1;P1;durP2;ratioP2;P2;SDS_P1;SDS_P2;PMS_P1;PMS_P2;Temp;Humidity;BMP_temperature;BMP_pressure;BME280_temperature;BME280_humidity;BME280_pressure;Samples;Min_cycle;Max_cycle;Signal;HPM_P1;HPM_P2
2021/10/08 00:00:29;;;;;;;35.67;26.27;;;;;;;4.61;100.00;100192.22;2115572;28;20789;-78
2021/10/08 00:01:41;;;;;;;44.15;26.17;;;;;;;4.59;100.00;100185.53;2108516;28;20212;-77
2021/10/08 00:02:47;;;;;;;42.63;26.25;;;;;;;4.58;100.00;100184.75;2109272;28;20219;-77
2021/10/08 00:03:55;;;;;;;35.28;26.65;;;;;;;4.57;100.00;100184.97;2107878;28;20206;-77
2021/10/08 00:04:56;;;;;;;38.83;26.27;;;;;;;4.59;100.00;100190.84;2115423;28;20663;-77
2021/10/08 00:06:01;;;;;;;35.90;25.63;;;;;;;4.53;100.00;100180.16;2115956;28;20670;-77
2021/10/08 00:07:05;;;;;;;41.03;27.10;;;;;;;4.53;100.00;100188.09;2115832;28;20220;-77
2021/10/08 00:08:13;;;;;;;45.33;27.05;;;;;;;4.54;100.00;100189.69;2107955;28;20209;-77
2021/10/08 00:09:22;;;;;;;44.67;27.10;;;;;;;4.50;100.00;100185.88;2108667;28;20674;-78
2021/10/08 00:10:32;;;;;;;42.42;26.23;;;;;;;4.49;100.00;100184.28;2115967;28;20770;-77
2021/10/08 00:11:33;;;;;;;40.95;28.73;;;;;;;4.48;100.00;100189.78;2116143;28;20200;-78
2021/10/08 00:12:36;;;;;;;41.50;28.73;;;;;;;4.46;100.00;100191.88;2107061;28;20584;-77
2021/10/08 00:13:46;;;;;;;52.53;28.23;;;;;;;4.44;100.00;100191.28;2107719;28;20674;-75
2021/10/08 00:14:52;;;;;;;36.83;26.48;;;;;;;4.43;100.00;100189.66;2116094;28;20168;-76
2021/10/08 00:16:02;;;;;;;42.00;26.50;;;;;;;4.40;100.00;100184.84;2116832;28;20240;-76
2021/10/08 00:17:07;;;;;;;37.72;26.25;;;;;;;4.36;100.00;100188.97;2116687;28;20221;-77
2021/10/08 00:18:09;;;;;;;39.10;27.20;;;;;;;4.34;100.00;100181.25;2115719;28;20197;-77
2021/10/08 00:19:12;;;;;;;42.20;28.38;;;;;;;4.33;100.00;100184.94;2107821;28;20663;-76
2021/10/08 00:20:16;;;;;;;47.97;28.42;;;;;;;4.32;100.00;100185.97;2115910;28;20193;-76
2021/10/08 00:21:25;;;;;;;43.05;28.83;;;;;;;4.32;100.00;100180.69;2115974;27;20205;-77
2021/10/08 00:22:32;;;;;;;44.28;27.08;;;;;;;4.31;100.00;100187.00;2108578;28;20539;-77
2021/10/08 00:23:38;;;;;;;42.85;27.73;;;;;;;4.30;100.00;100181.97;2116343;27;20670;-77
2021/10/08 00:24:49;;;;;;;41.50;27.70;;;;;;;4.30;100.00;100177.47;2115941;28;20231;-77
2021/10/08 00:25:55;;;;;;;45.65;28.67;;;;;;;4.28;100.00;100179.53;2116366;28;20197;-76
2021/10/08 00:27:00;;;;;;;44.95;27.85;;;;;;;4.28;100.00;100182.19;2115777;28;20233;-77
2021/10/08 00:28:04;;;;;;;42.13;27.60;;;;;;;4.25;100.00;100182.63;2115958;28;20231;-76
2021/10/08 00:29:09;;;;;;;51.30;28.23;;;;;;;4.24;100.00;100179.16;2115994;27;20207;-76
2021/10/08 00:30:17;;;;;;;47.33;28.38;;;;;;;4.22;100.00;100183.09;2115876;28;20258;-77
2021/10/08 00:31:25;;;;;;;43.05;28.88;;;;;;;4.20;100.00;100185.16;2116028;27;20201;-77
2021/10/08 00:32:32;;;;;;;44.85;27.88;;;;;;;4.18;100.00;100182.75;2115743;28;20193;-76
2021/10/08 00:33:34;;;;;;;50.75;28.67;;;;;;;4.18;100.00;100187.22;2116472;28;20216;-77
2021/10/08 00:34:36;;;;;;;41.08;27.50;;;;;;;4.17;100.00;100190.88;2115721;28;20673;-76
2021/10/08 00:35:44;;;;;;;42.83;27.85;;;;;;;4.15;100.00;100192.94;2107300;28;20238;-76
2021/10/08 00:36:50;;;;;;;44.53;28.50;;;;;;;4.16;100.00;100194.53;2115539;28;20232;-76
2021/10/08 00:38:03;;;;;;;37.28;27.52;;;;;;;4.13;100.00;100190.53;2115972;28;20695;-77
2021/10/08 00:39:07;;;;;;;42.10;27.55;;;;;;;4.15;100.00;100195.56;2116334;27;20561;-76
2021/10/08 00:40:12;;;;;;;44.03;27.70;;;;;;;4.14;100.00;100194.78;2116029;28;20181;-77
2021/10/08 00:41:20;;;;;;;45.22;28.83;;;;;;;4.13;100.00;100192.34;2115701;28;20205;-76
2021/10/08 00:42:26;;;;;;;46.00;29.10;;;;;;;4.10;100.00;100192.81;2115677;28;20235;-76
2021/10/08 00:43:32;;;;;;;40.38;28.95;;;;;;;4.09;100.00;100194.66;2115348;28;20197;-76
2021/10/08 00:44:42;;;;;;;54.20;29.02;;;;;;;4.07;100.00;100188.78;2115979;27;20287;-76
2021/10/08 00:45:55;;;;;;;40.85;27.92;;;;;;;4.06;100.00;100200.38;2108689;28;20224;-77
2021/10/08 00:47:10;;;;;;;48.45;28.55;;;;;;;4.05;100.00;100195.31;2108661;28;20201;-76
2021/10/08 00:48:12;;;;;;;45.35;28.90;;;;;;;4.00;100.00;100198.66;2108851;28;20224;-76
2021/10/08 00:49:15;;;;;;;40.80;27.50;;;;;;;4.02;100.00;100204.50;2115715;28;20234;-76
2021/10/08 00:50:25;;;;;;;44.53;28.02;;;;;;;4.03;100.00;100194.75;2116273;28;20191;-77
2021/10/08 00:51:32;;;;;;;47.78;28.17;;;;;;;4.01;100.00;100207.38;2115470;28;20209;-76
2021/10/08 00:52:46;;;;;;;40.53;27.95;;;;;;;4.00;100.00;100205.75;2107919;28;20204;-76
2021/10/08 00:53:49;;;;;;;41.15;28.48;;;;;;;3.97;100.00;100205.16;2116047;28;20179;-76
2021/10/08 00:54:59;;;;;;;45.28;28.40;;;;;;;3.95;100.00;100201.16;2116131;28;20203;-76
2021/10/08 00:56:02;;;;;;;46.38;29.13;;;;;;;3.93;100.00;100205.84;2115597;28;20719;-77
2021/10/08 00:57:07;;;;;;;46.08;28.25;;;;;;;3.93;100.00;100206.66;2107265;28;20214;-76
2021/10/08 00:58:22;;;;;;;42.70;28.50;;;;;;;3.92;100.00;100205.03;2115841;28;20166;-76
2021/10/08 00:59:27;;;;;;;46.00;27.38;;;;;;;3.88;100.00;100201.22;2115808;27;20235;-76
2021/10/08 01:00:39;;;;;;;40.63;28.05;;;;;;;3.88;100.00;100206.50;2115810;28;20741;-77
2021/10/08 01:01:46;;;;;;;41.20;27.73;;;;;;;3.88;100.00;100211.78;2115983;27;20225;-76
2021/10/08 01:02:51;;;;;;;40.70;28.10;;;;;;;3.86;100.00;100216.50;2115715;28;20213;-76
2021/10/08 01:03:53;;;;;;;46.20;28.63;;;;;;;3.87;100.00;100209.38;2115462;28;20246;-76
2021/10/08 01:05:01;;;;;;;35.55;27.20;;;;;;;3.83;100.00;100209.03;2107490;28;20647;-77
2021/10/08 01:06:03;;;;;;;41.08;27.00;;;;;;;3.85;100.00;100214.88;2115686;28;20180;-76
2021/10/08 01:07:10;;;;;;;42.75;27.98;;;;;;;3.84;100.00;100215.13;2115647;28;20592;-76
2021/10/08 01:08:18;;;;;;;44.70;26.80;;;;;;;3.84;100.00;100217.75;2115741;28;20711;-76
2021/10/08 01:09:26;;;;;;;47.53;27.55;;;;;;;3.80;100.00;100212.09;2115264;28;20209;-76
2021/10/08 01:10:32;;;;;;;43.38;27.88;;;;;;;3.81;100.00;100221.63;2108081;28;20225;-76
2021/10/08 01:11:33;;;;;;;39.45;27.13;;;;;;;3.81;100.00;100211.06;2115436;28;20208;-76
2021/10/08 01:12:45;;;;;;;42.17;27.08;;;;;;;3.81;100.00;100224.25;2116070;28;20654;-76
2021/10/08 01:13:56;;;;;;;43.13;27.30;;;;;;;3.80;100.00;100221.84;2108771;28;20662;-76
2021/10/08 01:15:01;;;;;;;41.40;28.02;;;;;;;3.77;100.00;100223.09;2115184;28;20288;-76
2021/10/08 01:16:13;;;;;;;45.20;28.13;;;;;;;3.77;100.00;100223.09;2106883;28;20255;-77
2021/10/08 01:17:21;;;;;;;42.55;27.52;;;;;;;3.73;100.00;100216.66;2108724;28;20209;-77
2021/10/08 01:18:27;;;;;;;39.97;25.85;;;;;;;3.73;100.00;100218.47;2107992;28;20189;-76
2021/10/08 01:19:37;;;;;;;39.15;27.70;;;;;;;3.73;100.00;100221.94;2107476;28;20223;-76
2021/10/08 01:20:50;;;;;;;44.78;27.77;;;;;;;3.72;100.00;100217.69;2114819;28;20659;-76
2021/10/08 01:21:59;;;;;;;44.30;27.58;;;;;;;3.69;100.00;100221.56;2115963;28;20216;-76
2021/10/08 01:23:05;;;;;;;50.00;28.02;;;;;;;3.68;100.00;100221.81;2115596;28;20196;-77
2021/10/08 01:24:19;;;;;;;41.38;27.77;;;;;;;3.66;100.00;100223.88;2115305;28;20670;-77
2021/10/08 01:25:22;;;;;;;40.33;27.10;;;;;;;3.63;100.00;100222.47;2107886;28;20668;-76
2021/10/08 01:26:24;;;;;;;39.38;27.10;;;;;;;3.63;100.00;100224.28;2115429;28;20189;-76
2021/10/08 01:27:28;;;;;;;36.05;28.10;;;;;;;3.63;100.00;100229.56;2115259;28;20193;-76
2021/10/08 01:28:47;;;;;;;37.65;26.70;;;;;;;3.59;100.00;100223.13;2108643;28;20228;-76
2021/10/08 01:30:02;;;;;;;46.13;27.23;;;;;;;3.58;100.00;100226.81;2108265;28;20753;-76
2021/10/08 01:31:22;;;;;;;40.53;28.02;;;;;;;3.57;100.00;100222.56;2115470;28;20284;-76
2021/10/08 01:32:30;;;;;;;41.22;28.17;;;;;;;3.55;100.00;100228.03;2115670;27;20211;-76
2021/10/08 01:33:33;;;;;;;39.97;26.95;;;;;;;3.58;100.00;100235.53;2106994;28;20189;-76
2021/10/08 01:34:41;;;;;;;37.78;26.63;;;;;;;3.56;100.00;100227.03;2107008;28;20634;-76
2021/10/08 01:35:54;;;;;;;47.50;28.23;;;;;;;3.56;100.00;100236.75;2108283;28;20258;-76
2021/10/08 01:37:00;;;;;;;39.40;26.02;;;;;;;3.53;100.00;100231.94;2108282;28;20208;-76
2021/10/08 01:38:04;;;;;;;39.40;27.15;;;;;;;3.54;100.00;100238.81;2107658;28;20668;-76
2021/10/08 01:39:07;;;;;;;38.28;27.33;;;;;;;3.50;100.00;100235.81;2107670;28;20226;-76
2021/10/08 01:40:14;;;;;;;43.25;26.48;;;;;;;3.50;100.00;100241.09;2106708;28;20277;-76
2021/10/08 01:41:26;;;;;;;37.38;26.05;;;;;;;3.50;100.00;100235.00;2107268;28;20254;-77
2021/10/08 01:42:33;;;;;;;45.17;27.05;;;;;;;3.47;100.00;100233.59;2115338;28;20174;-76
2021/10/08 01:43:45;;;;;;;39.83;27.10;;;;;;;3.46;100.00;100234.63;2115012;28;20254;-76
2021/10/08 01:44:56;;;;;;;36.10;27.23;;;;;;;3.44;100.00;100238.53;2108901;28;20201;-76
2021/10/08 01:46:02;;;;;;;37.53;27.23;;;;;;;3.42;100.00;100235.31;2108135;28;20193;-77
2021/10/08 01:47:10;;;;;;;35.83;27.52;;;;;;;3.39;100.00;100233.91;2115075;28;20628;-76
2021/10/08 01:48:12;;;;;;;49.15;27.95;;;;;;;3.39;100.00;100236.56;2115087;28;20184;-76
2021/10/08 01:49:17;;;;;;;44.40;27.23;;;;;;;3.41;100.00;100245.06;2115191;28;20200;-76
2021/10/08 01:50:25;;;;;;;44.13;27.58;;;;;;;3.39;100.00;100245.28;2107316;28;20193;-76
2021/10/08 01:51:38;;;;;;;37.72;26.67;;;;;;;3.37;100.00;100238.59;2107399;28;20280;-77
2021/10/08 01:52:47;;;;;;;42.97;27.20;;;;;;;3.36;100.00;100229.88;2108328;28;20234;-76
2021/10/08 01:53:56;;;;;;;36.90;26.20;;;;;;;3.36;100.00;100231.69;2107888;28;20196;-76
2021/10/08 01:55:00;;;;;;;36.45;27.52;;;;;;;3.36;100.00;100235.16;2107190;28;20686;-76
2021/10/08 01:56:07;;;;;;;42.70;27.50;;;;;;;3.35;100.00;100240.66;2107664;28;20284;-76
2021/10/08 01:57:28;;;;;;;42.30;27.30;;;;;;;3.33;100.00;100238.22;2108690;28;20224;-76
2021/10/08 01:58:37;;;;;;;34.58;26.52;;;;;;;3.31;100.00;100240.28;2115255;28;20204;-76
2021/10/08 01:59:45;;;;;;;39.28;27.38;;;;;;;3.29;100.00;100237.03;2115131;28;20242;-76
2021/10/08 02:00:50;;;;;;;38.03;27.27;;;;;;;3.29;100.00;100237.03;2115015;28;20199;-77
2021/10/08 02:02:03;;;;;;;39.83;27.13;;;;;;;3.28;100.00;100232.00;2108342;28;20201;-76
2021/10/08 02:03:05;;;;;;;38.60;27.73;;;;;;;3.27;100.00;100231.19;2106649;28;20223;-76
2021/10/08 02:04:12;;;;;;;35.53;27.20;;;;;;;3.26;100.00;100237.50;2106795;28;20201;-76
2021/10/08 02:05:23;;;;;;;47.10;28.42;;;;;;;3.27;100.00;100238.28;2107530;28;20232;-76
2021/10/08 02:06:33;;;;;;;47.55;29.50;;;;;;;3.25;100.00;100241.16;2114768;28;20204;-76
2021/10/08 02:07:47;;;;;;;43.85;27.88;;;;;;;3.25;100.00;100243.78;2107804;28;20626;-76
2021/10/08 02:08:53;;;;;;;44.08;28.67;;;;;;;3.23;100.00;100240.56;2108564;28;20614;-76
2021/10/08 02:09:57;;;;;;;37.92;26.88;;;;;;;3.19;100.00;100239.38;2106697;28;20284;-76
2021/10/08 02:11:00;;;;;;;37.70;27.20;;;;;;;3.20;100.00;100248.91;2107106;28;20190;-75
2021/10/08 02:12:04;;;;;;;44.85;27.58;;;;;;;3.18;100.00;100244.88;2107101;28;20193;-76
2021/10/08 02:13:14;;;;;;;38.65;26.65;;;;;;;3.19;100.00;100252.56;2107178;28;20703;-76
2021/10/08 02:14:24;;;;;;;37.10;27.70;;;;;;;3.19;100.00;100247.28;2108183;28;20658;-77
2021/10/08 02:15:34;;;;;;;37.22;26.48;;;;;;;3.17;100.00;100249.34;2108158;28;20200;-77
2021/10/08 02:16:37;;;;;;;35.47;26.77;;;;;;;3.17;100.00;100248.53;2107939;28;20235;-77
2021/10/08 02:17:44;;;;;;;42.10;27.50;;;;;;;3.18;100.00;100250.97;2107132;28;20376;-77
2021/10/08 02:18:47;;;;;;;40.22;25.83;;;;;;;3.17;100.00;100249.34;2106727;28;20206;-77
2021/10/08 02:20:00;;;;;;;44.90;27.10;;;;;;;3.14;100.00;100252.44;2107371;28;20194;-77
2021/10/08 02:21:04;;;;;;;37.50;26.33;;;;;;;3.14;100.00;100256.91;2107684;28;20204;-77
2021/10/08 02:22:17;;;;;;;47.33;27.70;;;;;;;3.14;100.00;100249.00;2107932;28;20683;-77
2021/10/08 02:23:24;;;;;;;43.28;27.30;;;;;;;3.12;100.00;100254.47;2108064;28;20197;-77
2021/10/08 02:24:27;;;;;;;36.42;26.67;;;;;;;3.11;100.00;100251.00;2106880;28;20699;-77
2021/10/08 02:25:34;;;;;;;36.53;26.67;;;;;;;3.10;100.00;100251.25;2106611;28;20197;-77
2021/10/08 02:26:42;;;;;;;39.85;27.05;;;;;;;3.10;100.00;100248.59;2107852;28;20205;-76
2021/10/08 02:28:00;;;;;;;49.63;27.02;;;;;;;3.08;100.00;100253.28;2108395;28;20202;-77
2021/10/08 02:29:05;;;;;;;39.47;26.33;;;;;;;3.09;100.00;100254.91;2107692;28;20216;-76
2021/10/08 02:30:14;;;;;;;34.53;27.02;;;;;;;3.06;100.00;100253.50;2107046;28;20193;-77
2021/10/08 02:31:17;;;;;;;41.92;27.85;;;;;;;3.06;100.00;100250.88;2107745;28;20235;-77
2021/10/08 02:32:19;;;;;;;41.85;27.67;;;;;;;3.04;100.00;100249.47;2106574;28;20189;-77
2021/10/08 02:33:31;;;;;;;43.83;27.58;;;;;;;3.04;100.00;100254.72;2106768;28;20733;-77
2021/10/08 02:34:41;;;;;;;38.38;26.27;;;;;;;3.00;100.00;100249.09;2108435;28;20232;-76
2021/10/08 02:35:47;;;;;;;34.67;27.10;;;;;;;3.01;100.00;100257.81;2107632;28;20208;-77
2021/10/08 02:36:58;;;;;;;34.50;26.60;;;;;;;3.00;100.00;100258.84;2107327;28;20251;-77
2021/10/08 02:38:02;;;;;;;36.70;26.10;;;;;;;2.98;100.00;100256.44;2114844;28;20212;-77
2021/10/08 02:39:04;;;;;;;43.17;27.55;;;;;;;2.98;100.00;100255.63;2115175;28;20274;-76
2021/10/08 02:40:12;;;;;;;39.22;25.85;;;;;;;2.96;100.00;100258.47;2106578;28;20233;-76
2021/10/08 02:41:23;;;;;;;44.50;26.15;;;;;;;2.92;100.00;100251.22;2107890;28;20205;-76
2021/10/08 02:42:32;;;;;;;37.83;26.17;;;;;;;2.91;100.00;100266.22;2107052;28;20197;-77
2021/10/08 02:43:41;;;;;;;34.03;25.98;;;;;;;2.89;100.00;100256.91;2107772;28;20198;-78
2021/10/08 02:44:52;;;;;;;32.00;26.10;;;;;;;2.86;100.00;100263.41;2106344;28;20235;-76
2021/10/08 02:45:57;;;;;;;40.78;27.63;;;;;;;2.87;100.00;100256.31;2108360;28;20608;-77
2021/10/08 02:46:59;;;;;;;34.65;27.42;;;;;;;2.84;100.00;100261.00;2106833;28;20197;-76
2021/10/08 02:48:03;;;;;;;43.38;26.65;;;;;;;2.83;100.00;100256.75;2114752;28;20188;-77
2021/10/08 02:49:10;;;;;;;36.17;27.90;;;;;;;2.84;100.00;100261.00;2106803;28;20248;-76
2021/10/08 02:50:22;;;;;;;30.95;25.40;;;;;;;2.84;100.00;100260.19;2107653;28;20201;-76
2021/10/08 02:51:28;;;;;;;49.30;27.15;;;;;;;2.83;100.00;100258.56;2108400;28;20290;-77
2021/10/08 02:52:32;;;;;;;43.80;26.38;;;;;;;2.82;100.00;100260.41;2114643;28;20657;-77
2021/10/08 02:53:35;;;;;;;38.38;27.33;;;;;;;2.83;100.00;100263.84;2107674;28;20205;-77
2021/10/08 02:54:39;;;;;;;34.72;26.63;;;;;;;2.82;100.00;100263.03;2108200;28;20205;-76
2021/10/08 02:55:41;;;;;;;35.08;25.92;;;;;;;2.81;100.00;100269.34;2116409;28;20275;-77
2021/10/08 02:56:49;;;;;;;38.17;26.75;;;;;;;2.79;100.00;100262.69;2116480;28;20204;-76
2021/10/08 02:57:56;;;;;;;38.08;25.65;;;;;;;2.80;100.00;100267.72;2109449;28;20329;-77
2021/10/08 02:59:04;;;;;;;36.17;25.00;;;;;;;2.81;100.00;100276.44;2116636;28;20223;-77
2021/10/08 03:00:11;;;;;;;39.08;27.35;;;;;;;2.81;100.00;100271.97;2116432;28;20223;-76
2021/10/08 03:01:20;;;;;;;35.33;25.85;;;;;;;2.82;100.00;100270.16;2109348;28;20189;-77
2021/10/08 03:02:28;;;;;;;40.58;25.48;;;;;;;2.84;100.00;100271.53;2109323;28;20251;-77
2021/10/08 03:03:33;;;;;;;36.13;25.35;;;;;;;2.84;100.00;100276.81;2109053;28;20197;-77
2021/10/08 03:04:40;;;;;;;37.95;26.02;;;;;;;2.84;100.00;100271.53;2108476;28;20204;-77
2021/10/08 03:05:44;;;;;;;37.35;26.75;;;;;;;2.84;100.00;100265.47;2108939;28;20249;-77
2021/10/08 03:06:46;;;;;;;44.45;27.13;;;;;;;2.84;100.00;100268.09;2108359;28;20193;-76
2021/10/08 03:07:56;;;;;;;35.97;25.60;;;;;;;2.85;100.00;100272.34;2108265;28;20624;-76
2021/10/08 03:09:07;;;;;;;45.95;26.17;;;;;;;2.86;100.00;100273.16;2110042;28;20294;-77
2021/10/08 03:10:17;;;;;;;37.33;26.10;;;;;;;2.90;100.00;100276.97;2108463;28;20281;-77
2021/10/08 03:11:31;;;;;;;42.97;26.67;;;;;;;2.84;100.00;100270.72;2108546;28;20622;-77
2021/10/08 03:12:35;;;;;;;35.40;25.55;;;;;;;2.86;100.00;100267.88;2109398;28;20193;-77
2021/10/08 03:13:39;;;;;;;37.67;26.33;;;;;;;2.85;100.00;100264.44;2116443;28;20538;-77
2021/10/08 03:14:47;;;;;;;34.95;25.60;;;;;;;2.83;100.00;100272.56;2116587;27;20240;-77
2021/10/08 03:16:00;;;;;;;40.95;26.52;;;;;;;2.84;100.00;100270.72;2109576;28;20201;-77
2021/10/08 03:17:02;;;;;;;45.63;26.65;;;;;;;2.84;100.00;100271.53;2109404;28;20201;-77
2021/10/08 03:18:09;;;;;;;40.10;26.45;;;;;;;2.86;100.00;100266.03;2108234;28;20680;-76
2021/10/08 03:19:15;;;;;;;46.83;26.75;;;;;;;2.90;100.00;100266.44;2116187;28;20207;-77
2021/10/08 03:20:19;;;;;;;35.05;25.60;;;;;;;2.93;100.00;100271.25;2107729;28;20209;-76
2021/10/08 03:21:21;;;;;;;37.05;27.85;;;;;;;2.92;100.00;100269.66;2107955;28;20197;-77
2021/10/08 03:22:28;;;;;;;35.42;27.05;;;;;;;2.91;100.00;100265.41;2108002;28;20197;-77
2021/10/08 03:23:32;;;;;;;39.60;26.77;;;;;;;2.90;100.00;100269.88;2116788;28;20530;-78
2021/10/08 03:24:41;;;;;;;34.60;26.88;;;;;;;2.93;100.00;100273.91;2116362;28;20691;-75
2021/10/08 03:25:49;;;;;;;42.40;26.48;;;;;;;2.89;100.00;100272.72;2116127;28;20694;-76
2021/10/08 03:26:55;;;;;;;37.65;26.25;;;;;;;2.87;100.00;100277.38;2108545;28;20213;-77
2021/10/08 03:28:01;;;;;;;32.42;25.60;;;;;;;2.86;100.00;100273.16;2108323;28;20608;-77
2021/10/08 03:29:09;;;;;;;34.22;26.20;;;;;;;2.83;100.00;100279.66;2108378;28;20251;-77
2021/10/08 03:30:17;;;;;;;38.13;27.05;;;;;;;2.80;100.00;100275.63;2109176;28;20201;-77
2021/10/08 03:31:27;;;;;;;42.38;27.20;;;;;;;2.79;100.00;100283.75;2108622;28;20288;-77
2021/10/08 03:32:29;;;;;;;34.53;26.08;;;;;;;2.80;100.00;100286.19;2116012;28;20200;-77
2021/10/08 03:33:36;;;;;;;35.65;24.65;;;;;;;2.77;100.00;100286.59;2116232;28;20246;-76
2021/10/08 03:34:42;;;;;;;38.97;26.52;;;;;;;2.75;100.00;100286.00;2108217;28;20197;-77
2021/10/08 03:35:47;;;;;;;38.80;26.90;;;;;;;2.73;100.00;100288.06;2109129;28;20275;-76
2021/10/08 03:36:52;;;;;;;43.50;27.20;;;;;;;2.71;100.00;100287.47;2116340;28;20735;-76
2021/10/08 03:38:03;;;;;;;38.38;27.33;;;;;;;2.70;100.00;100285.84;2116145;28;20213;-77
2021/10/08 03:39:11;;;;;;;40.58;26.95;;;;;;;2.69;100.00;100289.47;2116639;28;20260;-77
2021/10/08 03:40:24;;;;;;;37.83;27.95;;;;;;;2.68;100.00;100285.22;2116859;28;20181;-77
2021/10/08 03:41:30;;;;;;;40.53;27.85;;;;;;;2.69;100.00;100286.84;2116524;27;20204;-76
2021/10/08 03:42:31;;;;;;;42.28;28.67;;;;;;;2.69;100.00;100284.22;2108204;28;20234;-77
2021/10/08 03:43:36;;;;;;;39.13;28.40;;;;;;;2.67;100.00;100286.25;2116274;28;20203;-77
2021/10/08 03:44:53;;;;;;;38.83;27.77;;;;;;;2.74;100.00;100289.66;2116102;28;20204;-77
2021/10/08 03:46:04;;;;;;;38.90;28.42;;;;;;;2.72;100.00;100293.53;2109840;28;20633;-77
2021/10/08 03:47:15;;;;;;;38.75;28.25;;;;;;;2.73;100.00;100295.16;2109141;28;20205;-77
2021/10/08 03:49:44;;;;;;;37.65;27.73;;;;;;;2.64;100.00;100296.44;2111066;28;20225;-76
2021/10/08 03:50:45;;;;;;;41.10;28.10;;;;;;;2.66;100.00;100302.28;2108593;28;20197;-76
2021/10/08 03:51:49;;;;;;;45.55;28.90;;;;;;;2.64;100.00;100294.59;2116380;28;20250;-76
2021/10/08 03:52:59;;;;;;;50.35;28.25;;;;;;;2.62;100.00;100291.38;2116057;28;20340;-76
2021/10/08 03:54:03;;;;;;;38.08;28.48;;;;;;;2.60;100.00;100305.75;2109094;28;20197;-76
2021/10/08 03:55:08;;;;;;;46.75;28.83;;;;;;;2.58;100.00;100295.44;2108380;28;20307;-76
2021/10/08 03:56:21;;;;;;;36.40;28.33;;;;;;;2.54;100.00;100289.81;2116205;28;20173;-76
2021/10/08 03:57:30;;;;;;;51.40;30.35;;;;;;;2.55;100.00;100303.78;2116228;28;20682;-76
2021/10/08 03:58:32;;;;;;;43.42;29.67;;;;;;;2.52;100.00;100305.03;2116238;28;20197;-76
2021/10/08 03:59:39;;;;;;;49.30;29.55;;;;;;;2.53;100.00;100303.19;2115988;28;20196;-76
2021/10/08 04:00:45;;;;;;;42.70;29.40;;;;;;;2.52;100.00;100314.75;2108965;28;20228;-76
2021/10/08 04:01:57;;;;;;;45.05;29.83;;;;;;;2.45;100.00;100300.81;2108354;28;20375;-76
2021/10/08 04:03:06;;;;;;;34.78;28.10;;;;;;;2.48;100.00;100314.34;2109427;28;20267;-77
2021/10/08 04:04:10;;;;;;;39.25;28.58;;;;;;;2.45;100.00;100314.78;2115678;28;20189;-76
2021/10/08 04:05:12;;;;;;;41.97;29.00;;;;;;;2.44;100.00;100307.09;2115940;28;20251;-76
2021/10/08 04:06:15;;;;;;;41.88;29.58;;;;;;;2.44;100.00;100312.38;2107934;28;20204;-76
2021/10/08 04:07:25;;;;;;;44.45;28.20;;;;;;;2.46;100.00;100315.59;2107731;28;20209;-76
2021/10/08 04:08:30;;;;;;;43.28;28.48;;;;;;;2.43;100.00;100313.38;2109110;28;20196;-76
2021/10/08 04:09:34;;;;;;;42.10;27.33;;;;;;;2.43;100.00;100310.72;2108240;28;20218;-76
2021/10/08 04:10:44;;;;;;;39.63;27.13;;;;;;;2.42;100.00;100317.03;2115915;28;20695;-76
2021/10/08 04:11:51;;;;;;;41.42;28.30;;;;;;;2.40;100.00;100319.06;2116222;27;20192;-76
2021/10/08 04:12:59;;;;;;;39.80;27.70;;;;;;;2.38;100.00;100318.47;2107825;28;20739;-77
2021/10/08 04:14:03;;;;;;;42.53;30.20;;;;;;;2.36;100.00;100315.25;2115931;28;20193;-76
2021/10/08 04:15:07;;;;;;;39.13;29.40;;;;;;;2.35;100.00;100317.09;2107778;28;20234;-76
2021/10/08 04:16:12;;;;;;;43.53;27.88;;;;;;;2.36;100.00;100320.53;2116042;28;20197;-76
2021/10/08 04:17:16;;;;;;;47.72;30.33;;;;;;;2.35;100.00;100324.97;2107495;28;20688;-76
2021/10/08 04:18:20;;;;;;;41.38;29.13;;;;;;;2.34;100.00;100317.25;2107641;28;20213;-76
2021/10/08 04:19:21;;;;;;;45.50;28.15;;;;;;;2.34;100.00;100320.69;2116091;27;20735;-76
2021/10/08 04:20:27;;;;;;;45.00;28.42;;;;;;;2.34;100.00;100325.16;2107662;28;20194;-76
2021/10/08 04:21:34;;;;;;;42.15;29.58;;;;;;;2.32;100.00;100319.31;2114900;28;20212;-76
2021/10/08 04:22:38;;;;;;;43.80;30.45;;;;;;;2.32;100.00;100314.84;2108434;28;20572;-76
2021/10/08 04:23:44;;;;;;;41.42;27.83;;;;;;;2.31;100.00;100320.34;2116018;27;20197;-77
2021/10/08 04:24:46;;;;;;;42.17;28.40;;;;;;;2.26;100.00;100318.34;2115671;28;20292;-76
2021/10/08 04:25:51;;;;;;;41.75;28.70;;;;;;;2.33;100.00;100334.09;2107695;28;20208;-76
2021/10/08 04:26:54;;;;;;;43.60;29.35;;;;;;;2.33;100.00;100334.09;2115379;28;20787;-77
2021/10/08 04:27:58;;;;;;;39.97;29.15;;;;;;;2.31;100.00;100326.41;2115829;28;20193;-76
2021/10/08 04:29:01;;;;;;;42.67;29.60;;;;;;;2.31;100.00;100334.31;2115805;28;20200;-77
2021/10/08 04:30:07;;;;;;;34.72;27.52;;;;;;;2.30;100.00;100329.25;2116094;27;20247;-76
2021/10/08 04:31:15;;;;;;;39.10;28.55;;;;;;;2.36;100.00;100325.78;2107793;28;20225;-77
2021/10/08 04:32:20;;;;;;;43.05;28.67;;;;;;;2.34;100.00;100327.78;2115772;28;20639;-77
2021/10/08 04:33:28;;;;;;;50.70;29.00;;;;;;;2.37;100.00;100330.03;2108188;28;20221;-75
2021/10/08 04:34:33;;;;;;;43.47;27.67;;;;;;;2.45;100.00;100329.78;2108423;28;20292;-75
2021/10/08 04:35:38;;;;;;;46.10;28.33;;;;;;;2.48;100.00;100324.88;2107424;28;20723;-75
2021/10/08 04:36:46;;;;;;;44.63;27.63;;;;;;;2.45;100.00;100330.59;2115750;28;20226;-76
2021/10/08 04:37:52;;;;;;;37.53;27.65;;;;;;;2.45;100.00;100330.59;2115311;28;20193;-75
2021/10/08 04:39:01;;;;;;;37.88;26.38;;;;;;;2.50;100.00;100337.84;2108158;28;20229;-76
2021/10/08 04:40:10;;;;;;;42.03;26.30;;;;;;;2.52;100.00;100336.63;2108318;28;20664;-75
2021/10/08 04:41:16;;;;;;;37.33;24.20;;;;;;;2.49;100.00;100337.03;2108442;28;20285;-75
2021/10/08 04:42:23;;;;;;;38.65;27.45;;;;;;;2.48;100.00;100334.63;2115641;28;20196;-75
2021/10/08 04:43:26;;;;;;;49.42;27.17;;;;;;;2.46;100.00;100341.94;2107914;28;20608;-76
2021/10/08 04:44:32;;;;;;;42.65;27.30;;;;;;;2.43;100.00;100339.69;2115667;28;20204;-76
2021/10/08 04:45:35;;;;;;;36.05;26.77;;;;;;;2.43;100.00;100342.34;2108033;28;20194;-76
2021/10/08 04:46:39;;;;;;;43.45;27.13;;;;;;;2.41;100.00;100345.19;2107446;28;20695;-76
2021/10/08 04:47:43;;;;;;;41.58;27.40;;;;;;;2.40;100.00;100340.94;2107825;28;20204;-76
2021/10/08 04:48:49;;;;;;;40.97;27.50;;;;;;;2.38;100.00;100342.19;2115803;28;20228;-77
2021/10/08 04:49:54;;;;;;;41.85;28.70;;;;;;;2.41;100.00;100344.38;2115480;28;20197;-77
2021/10/08 04:51:01;;;;;;;39.33;26.55;;;;;;;2.38;100.00;100348.25;2107311;28;20197;-77
2021/10/08 04:52:08;;;;;;;43.10;26.45;;;;;;;2.38;100.00;100342.19;2107956;28;20212;-77
2021/10/08 04:53:22;;;;;;;44.90;27.20;;;;;;;2.37;100.00;100345.84;2108616;28;20190;-77
2021/10/08 04:54:32;;;;;;;37.80;26.80;;;;;;;2.36;100.00;100352.94;2115904;27;20208;-77
2021/10/08 04:55:34;;;;;;;43.80;28.15;;;;;;;2.35;100.00;100355.78;2115931;28;20663;-77
2021/10/08 04:56:37;;;;;;;49.08;28.13;;;;;;;2.31;100.00;100344.03;2107468;28;20637;-76
2021/10/08 04:57:46;;;;;;;37.47;27.42;;;;;;;2.32;100.00;100346.44;2115638;28;20267;-77
2021/10/08 04:58:47;;;;;;;40.10;27.48;;;;;;;2.33;100.00;100348.06;2115689;28;20725;-77
2021/10/08 05:00:00;;;;;;;54.63;28.08;;;;;;;2.34;100.00;100348.88;2107088;28;20212;-76
2021/10/08 05:01:04;;;;;;;47.33;28.15;;;;;;;2.32;100.00;100354.34;2115332;28;20211;-76
2021/10/08 05:02:12;;;;;;;44.22;26.20;;;;;;;2.37;100.00;100359.00;2108034;28;20220;-76
2021/10/08 05:03:23;;;;;;;40.95;28.20;;;;;;;2.39;100.00;100355.13;2115517;28;20185;-76
2021/10/08 05:04:26;;;;;;;42.22;26.98;;;;;;;2.39;100.00;100357.75;2108714;28;20197;-76
2021/10/08 05:05:32;;;;;;;40.83;27.05;;;;;;;2.37;100.00;100356.38;2115577;28;20716;-77